AF1 KMEM-KBNA
Flight info
| Callsign | AF1 |
|---|---|
| Flight time | N/A |
| Altitude | 23000 |
| Route | GOETZ7 DIYAB CHSNE CHSNE3 |
| Aircraft | B748/H-SDE3FGHIM1M2RWXY/LB1 |
Departure
| Time | 2026-05-06 02:20 |
|---|---|
| Airport | Memphis International Airport (KMEM) |
Arrival
| Time | N/A |
|---|---|
| Airport | Nashville International Airport (KBNA) |
| Time | Latitude | Longitude | Altitude | Speed | Heading |
|---|---|---|---|---|---|
| 2026-05-06 02:09 | 35.03330 | -89.96693 | 314 ft | 0 kts | 91° |
| 2026-05-06 02:12 | 35.03332 | -89.96678 | 316 ft | 6 kts | 72° |
| 2026-05-06 02:12 | 35.03389 | -89.96668 | 315 ft | 13 kts | 322° |
| 2026-05-06 02:12 | 35.03405 | -89.96750 | 314 ft | 0 kts | 278° |
| 2026-05-06 02:14 | 35.03405 | -89.96751 | 314 ft | 0 kts | 279° |
| 2026-05-06 02:14 | 35.03405 | -89.96753 | 314 ft | 1 kts | 280° |
| 2026-05-06 02:15 | 35.03423 | -89.96807 | 316 ft | 15 kts | 305° |
| 2026-05-06 02:15 | 35.03488 | -89.96847 | 316 ft | 11 kts | 351° |
| 2026-05-06 02:15 | 35.03665 | -89.96856 | 317 ft | 37 kts | 359° |
| 2026-05-06 02:15 | 35.03796 | -89.96926 | 317 ft | 12 kts | 285° |
| 2026-05-06 02:16 | 35.03817 | -89.97040 | 317 ft | 17 kts | 294° |
| 2026-05-06 02:16 | 35.03906 | -89.97097 | 317 ft | 15 kts | 6° |
| 2026-05-06 02:16 | 35.04006 | -89.97089 | 318 ft | 17 kts | 358° |
| 2026-05-06 02:16 | 35.04155 | -89.97100 | 320 ft | 25 kts | 359° |
| 2026-05-06 02:17 | 35.04343 | -89.97092 | 320 ft | 23 kts | 10° |
| 2026-05-06 02:17 | 35.04508 | -89.97058 | 323 ft | 24 kts | 5° |
| 2026-05-06 02:17 | 35.04685 | -89.97065 | 325 ft | 29 kts | 355° |
| 2026-05-06 02:17 | 35.04834 | -89.97079 | 328 ft | 10 kts | 333° |
| 2026-05-06 02:18 | 35.04857 | -89.97104 | 330 ft | 0 kts | 300° |
| 2026-05-06 02:18 | 35.04858 | -89.97108 | 332 ft | 3 kts | 291° |
| 2026-05-06 02:18 | 35.04866 | -89.97160 | 332 ft | 8 kts | 276° |
| 2026-05-06 02:18 | 35.04866 | -89.97163 | 332 ft | 0 kts | 276° |
| 2026-05-06 02:19 | 35.04869 | -89.97195 | 333 ft | 17 kts | 274° |
| 2026-05-06 02:19 | 35.04802 | -89.97298 | 330 ft | 20 kts | 181° |
| 2026-05-06 02:19 | 35.04714 | -89.97292 | 328 ft | 2 kts | 178° |
| 2026-05-06 02:19 | 35.04543 | -89.97287 | 328 ft | 65 kts | 180° |
| 2026-05-06 02:20 | 35.02523 | -89.97216 | 395 ft | 210 kts | 174° |
| 2026-05-06 02:20 | 35.01010 | -89.97062 | 1174 ft | 232 kts | 179° |
| 2026-05-06 02:20 | 34.99396 | -89.96793 | 2028 ft | 223 kts | 170° |